createdAt,value
2022-10-01T00:01:45.482Z,4.93
2022-10-01T00:11:47.678Z,4.78
2022-10-01T00:21:49.850Z,4.63
2022-10-01T00:31:52.061Z,4.58
2022-10-01T00:41:54.805Z,4.52
2022-10-01T00:52:02.368Z,4.35
2022-10-01T01:02:04.767Z,4.24
2022-10-01T01:12:25.858Z,4.17
2022-10-01T01:22:33.702Z,4.00
2022-10-01T01:32:48.129Z,3.77
2022-10-01T01:42:51.663Z,3.74
2022-10-01T01:52:54.528Z,3.68
2022-10-01T02:02:57.931Z,3.62
2022-10-01T02:13:22.326Z,3.49
2022-10-01T02:23:30.312Z,3.50
2022-10-01T02:33:36.357Z,3.40
2022-10-01T02:43:54.480Z,3.37
2022-10-01T02:54:03.379Z,3.31
2022-10-01T03:04:05.495Z,3.25
2022-10-01T03:14:07.720Z,3.19
2022-10-01T03:24:10.051Z,3.02
2022-10-01T03:34:13.481Z,2.94
2022-10-01T03:44:15.699Z,2.89
2022-10-01T03:54:18.129Z,3.02
2022-10-01T04:04:20.453Z,3.15
2022-10-01T04:14:22.552Z,3.43
2022-10-01T04:24:24.643Z,3.52
2022-10-01T04:34:46.787Z,3.68
2022-10-01T04:44:48.911Z,3.61
2022-10-01T04:54:52.471Z,3.71
2022-10-01T05:04:54.695Z,3.51
2022-10-01T05:14:57.163Z,3.30
2022-10-01T05:25:00.471Z,3.09
2022-10-01T05:35:03.462Z,2.95
2022-10-01T05:45:05.979Z,3.10
2022-10-01T05:55:08.617Z,3.30
2022-10-01T06:05:10.694Z,3.63
2022-10-01T06:15:13.432Z,4.28
2022-10-01T06:25:15.797Z,4.82
2022-10-01T06:35:17.991Z,5.40
2022-10-01T06:45:20.150Z,5.76
2022-10-01T06:55:26.347Z,5.99
2022-10-01T07:05:28.523Z,6.11
2022-10-01T07:15:31.391Z,6.30
2022-10-01T07:25:33.614Z,6.76
2022-10-01T07:35:38.289Z,7.34
2022-10-01T07:45:40.491Z,8.23
2022-10-01T07:55:42.864Z,9.21
2022-10-01T08:05:46.577Z,9.80
2022-10-01T08:15:53.760Z,9.93
2022-10-01T08:26:09.137Z,10.15
2022-10-01T08:36:11.408Z,10.38
2022-10-01T08:46:18.276Z,10.96
2022-10-01T08:56:37.685Z,11.64
2022-10-01T09:06:40.136Z,12.25
2022-10-01T09:16:54.474Z,12.77
2022-10-01T09:26:57.145Z,13.20
2022-10-01T09:37:28.065Z,13.13
2022-10-01T09:47:33.113Z,12.95
2022-10-01T09:57:43.398Z,13.04
2022-10-01T10:08:30.123Z,13.12
2022-10-01T10:18:35.728Z,13.11
2022-10-01T10:28:44.617Z,13.20
2022-10-01T10:38:53.838Z,13.12
2022-10-01T10:49:04.899Z,13.19
2022-10-01T10:59:10.223Z,13.57
2022-10-01T11:09:18.702Z,13.55
2022-10-01T11:19:29.777Z,13.54
2022-10-01T11:29:50.819Z,13.63
2022-10-01T11:39:56.288Z,13.88
2022-10-01T11:50:13.515Z,14.00
2022-10-01T12:00:16.084Z,13.83
2022-10-01T12:10:18.152Z,13.81
2022-10-01T12:20:30.143Z,14.13
2022-10-01T12:30:42.051Z,14.74
2022-10-01T12:40:56.458Z,14.52
2022-10-01T12:51:33.517Z,14.17
2022-10-01T13:02:12.827Z,13.72
2022-10-01T13:13:02.485Z,12.96
2022-10-01T13:23:11.686Z,12.42
2022-10-01T13:33:24.120Z,12.12
2022-10-01T13:43:26.352Z,12.03
2022-10-01T13:53:30.225Z,11.70
2022-10-01T14:03:34.581Z,10.98
2022-10-01T14:14:04.524Z,10.68
2022-10-01T14:24:24.684Z,10.43
2022-10-01T14:34:42.496Z,10.01
2022-10-01T14:44:47.076Z,9.91
2022-10-01T14:54:58.565Z,9.69
2022-10-01T15:05:00.815Z,9.46
2022-10-01T15:15:03.088Z,9.33
2022-10-01T15:25:05.829Z,9.21
2022-10-01T15:35:13.464Z,9.22
2022-10-01T15:45:26.055Z,9.30
2022-10-01T15:55:42.353Z,9.34
2022-10-01T16:05:48.939Z,9.34
2022-10-01T16:16:19.061Z,9.50
2022-10-01T16:26:29.329Z,9.55
2022-10-01T16:36:34.476Z,9.69
2022-10-01T16:46:36.830Z,9.87
2022-10-01T16:56:41.501Z,9.91
2022-10-01T17:06:43.876Z,9.98
2022-10-01T17:16:46.136Z,10.00
2022-10-01T17:26:48.452Z,10.06
2022-10-01T17:36:50.740Z,10.07
2022-10-01T17:46:52.819Z,10.13
2022-10-01T17:56:55.481Z,10.12
2022-10-01T18:06:59.834Z,10.13
2022-10-01T18:17:02.113Z,10.22
2022-10-01T18:27:04.197Z,10.20
2022-10-01T18:37:07.360Z,10.31
2022-10-01T18:47:17.852Z,10.35
2022-10-01T18:57:30.511Z,10.42
2022-10-01T19:07:50.991Z,10.24
2022-10-01T19:18:02.162Z,10.34
2022-10-01T19:28:15.729Z,10.36
2022-10-01T19:38:34.987Z,10.53
2022-10-01T19:48:49.089Z,10.50
2022-10-01T19:58:51.170Z,10.44
2022-10-01T20:09:20.761Z,10.61
2022-10-01T20:19:49.530Z,10.66
2022-10-01T20:29:54.549Z,10.85
2022-10-01T20:40:19.009Z,10.83
2022-10-01T20:50:26.543Z,10.86
2022-10-01T21:00:31.245Z,10.79
2022-10-01T21:10:45.151Z,10.71
2022-10-01T21:20:57.733Z,10.67
2022-10-01T21:31:08.579Z,10.47
2022-10-01T21:41:16.398Z,10.54
2022-10-01T21:51:35.923Z,10.60
2022-10-01T22:02:10.722Z,10.44
2022-10-01T22:12:13.005Z,10.38
2022-10-01T22:22:25.870Z,10.41
2022-10-01T22:32:30.947Z,10.41
2022-10-01T22:42:37.069Z,10.31
2022-10-01T22:52:42.205Z,10.42
2022-10-01T23:03:06.124Z,10.55
2022-10-01T23:13:37.065Z,10.75
2022-10-01T23:23:42.168Z,10.95
2022-10-01T23:34:09.092Z,11.07
2022-10-01T23:44:36.616Z,11.19
2022-10-01T23:54:46.142Z,11.21
